Time;durP1;ratioP1;P1;durP2;ratioP2;P2;SDS_P1;SDS_P2;PMS_P1;PMS_P2;Temp;Humidity;BMP_temperature;BMP_pressure;BME280_temperature;BME280_humidity;BME280_pressure;Samples;Min_cycle;Max_cycle;Signal;HPM_P1;HPM_P2
2022/11/26 00:00:13;;;;;;;12.82;3.33;;;6.20;99.90;;;;;;4882208;29;20139;-85
2022/11/26 00:02:42;;;;;;;15.25;3.53;;;6.20;99.90;;;;;;4879692;29;20493;-85
2022/11/26 00:05:16;;;;;;;14.00;3.22;;;6.10;99.90;;;;;;4865035;29;20500;-85
2022/11/26 00:07:54;;;;;;;7.75;3.00;;;6.10;99.90;;;;;;4879810;29;20060;-85
2022/11/26 00:10:29;;;;;;;12.80;3.15;;;6.20;99.90;;;;;;4879936;29;20052;-85
2022/11/26 00:12:55;;;;;;;10.88;3.20;;;6.00;99.90;;;;;;4879258;29;20497;-86
2022/11/26 00:15:30;;;;;;;14.55;3.95;;;6.10;99.90;;;;;;4880874;29;20120;-85
2022/11/26 00:18:08;;;;;;;11.05;3.40;;;6.10;99.90;;;;;;4880236;29;20041;-86
2022/11/26 00:20:36;;;;;;;10.80;3.38;;;6.00;99.90;;;;;;4896514;29;20052;-85
2022/11/26 00:23:34;;;;;;;11.70;3.30;;;6.00;99.90;;;;;;4891812;29;20068;-85
2022/11/26 00:26:02;;;;;;;19.10;3.90;;;6.00;99.90;;;;;;4872069;29;20131;-85
2022/11/26 00:28:33;;;;;;;12.23;3.58;;;6.00;99.90;;;;;;4880787;29;20052;-85
2022/11/26 00:31:05;;;;;;;12.23;3.45;;;6.00;99.90;;;;;;4880928;29;20059;-85
2022/11/26 00:33:33;;;;;;;9.68;3.13;;;5.90;99.90;;;;;;4879239;29;20044;-85
2022/11/26 00:36:20;;;;;;;11.02;3.58;;;6.00;99.90;;;;;;4879620;29;20518;-85
2022/11/26 00:38:50;;;;;;;17.88;5.18;;;6.00;99.90;;;;;;4911203;29;20049;-85
2022/11/26 00:41:18;;;;;;;11.55;3.67;;;5.90;99.90;;;;;;4879026;29;20185;-85
2022/11/26 00:43:45;;;;;;;12.80;3.90;;;5.90;99.90;;;;;;4879419;29;20048;-85
2022/11/26 00:46:19;;;;;;;11.90;3.60;;;5.90;99.90;;;;;;4881190;29;20132;-85
2022/11/26 00:48:51;;;;;;;9.95;3.22;;;6.00;99.90;;;;;;4879187;29;20037;-85
2022/11/26 00:51:25;;;;;;;9.30;3.47;;;5.90;99.90;;;;;;4878740;29;20041;-85
2022/11/26 00:53:58;;;;;;;10.65;3.30;;;5.90;99.90;;;;;;4877515;29;20049;-85
2022/11/26 00:56:23;;;;;;;11.57;3.45;;;5.80;99.90;;;;;;4879031;29;20044;-84
2022/11/26 00:58:50;;;;;;;7.72;3.15;;;5.90;99.90;;;;;;4880289;29;20397;-85
2022/11/26 01:01:20;;;;;;;12.43;3.42;;;5.90;99.90;;;;;;4878741;29;20049;-84
2022/11/26 01:03:45;;;;;;;8.98;3.30;;;5.90;99.90;;;;;;4864813;29;20052;-85
2022/11/26 01:06:21;;;;;;;12.40;4.00;;;5.80;99.90;;;;;;4878979;29;20048;-84
2022/11/26 01:08:47;;;;;;;10.95;3.55;;;5.80;99.90;;;;;;4878511;29;20177;-84
2022/11/26 01:11:17;;;;;;;9.65;3.20;;;5.80;99.90;;;;;;4898410;29;20080;-84
2022/11/26 01:13:44;;;;;;;9.93;3.67;;;5.80;99.90;;;;;;4883530;29;20041;-84
2022/11/26 01:16:19;;;;;;;9.68;3.42;;;5.80;99.90;;;;;;4878269;29;20402;-84
2022/11/26 01:18:47;;;;;;;8.10;3.53;;;5.70;99.90;;;;;;4867911;29;20093;-85
2022/11/26 01:21:13;;;;;;;11.88;4.05;;;5.70;99.90;;;;;;4878688;29;20135;-85
2022/11/26 01:23:38;;;;;;;8.50;3.25;;;5.70;99.90;;;;;;4878132;29;20140;-85
2022/11/26 01:26:05;;;;;;;12.18;3.60;;;5.70;99.90;;;;;;4879056;29;20048;-85
2022/11/26 01:28:31;;;;;;;12.32;3.90;;;5.70;99.90;;;;;;4880214;29;20053;-85
2022/11/26 01:30:56;;;;;;;12.52;4.00;;;5.70;99.90;;;;;;4878177;29;20406;-84
2022/11/26 01:33:22;;;;;;;12.38;3.40;;;5.70;99.90;;;;;;4897829;29;20040;-85
2022/11/26 01:35:47;;;;;;;9.25;3.25;;;5.70;99.90;;;;;;4887125;29;20045;-84
2022/11/26 01:38:14;;;;;;;12.23;3.53;;;5.70;99.90;;;;;;4879133;29;20096;-85
2022/11/26 01:41:00;;;;;;;9.25;3.38;;;5.70;99.90;;;;;;4895272;23;20136;-85
2022/11/26 01:43:28;;;;;;;9.57;3.38;;;5.70;99.90;;;;;;4895661;29;20564;-85
2022/11/26 01:45:55;;;;;;;9.45;3.53;;;5.60;99.90;;;;;;4892944;29;20143;-85
2022/11/26 01:48:30;;;;;;;8.27;3.60;;;5.60;99.90;;;;;;4897132;29;20045;-85
2022/11/26 01:51:05;;;;;;;10.80;3.50;;;5.60;99.90;;;;;;4891169;29;20073;-85
2022/11/26 01:53:40;;;;;;;10.27;3.53;;;5.60;99.90;;;;;;4878896;29;20510;-85
2022/11/26 01:56:15;;;;;;;10.73;3.33;;;5.60;99.90;;;;;;4887260;29;20049;-85
2022/11/26 01:58:49;;;;;;;9.15;3.28;;;5.50;99.90;;;;;;4895965;29;20119;-85
2022/11/26 02:01:15;;;;;;;11.00;3.47;;;5.50;99.90;;;;;;4886096;29;20060;-85
2022/11/26 02:03:51;;;;;;;9.10;3.40;;;5.50;99.90;;;;;;4881197;29;20048;-85
2022/11/26 02:06:22;;;;;;;11.07;3.58;;;5.50;99.90;;;;;;4881205;29;20482;-84
2022/11/26 02:08:48;;;;;;;10.15;3.33;;;5.50;99.90;;;;;;4879691;29;20041;-84
2022/11/26 02:11:17;;;;;;;10.55;3.60;;;5.50;99.90;;;;;;4883106;29;20132;-85
2022/11/26 02:13:44;;;;;;;10.88;3.00;;;5.40;99.90;;;;;;4897202;29;20049;-85
2022/11/26 02:16:36;;;;;;;10.52;3.30;;;5.40;99.90;;;;;;4886413;29;20063;-85
2022/11/26 02:19:30;;;;;;;10.15;3.50;;;5.40;99.90;;;;;;4891721;29;20041;-85
2022/11/26 02:22:11;;;;;;;9.05;3.40;;;5.30;99.90;;;;;;4887830;29;20068;-85
2022/11/26 02:25:12;;;;;;;10.85;3.15;;;5.30;99.90;;;;;;4877906;29;20041;-84
2022/11/26 02:28:03;;;;;;;11.32;3.20;;;5.30;99.90;;;;;;4888927;29;20517;-84
2022/11/26 02:30:35;;;;;;;12.13;3.80;;;5.30;99.90;;;;;;4889090;29;20040;-85
2022/11/26 02:33:04;;;;;;;8.65;3.17;;;5.30;99.90;;;;;;4878832;29;20114;-85
2022/11/26 02:35:41;;;;;;;9.13;3.72;;;5.20;99.90;;;;;;4878280;29;20041;-85
2022/11/26 02:38:15;;;;;;;11.15;3.38;;;5.20;99.90;;;;;;4893236;29;20041;-85
2022/11/26 02:40:41;;;;;;;8.48;3.15;;;5.20;99.90;;;;;;4891094;29;20493;-85
2022/11/26 02:43:06;;;;;;;11.15;3.30;;;5.20;99.90;;;;;;4886961;29;20044;-85
2022/11/26 02:45:37;;;;;;;9.48;3.88;;;5.20;99.90;;;;;;4888587;29;20044;-85
2022/11/26 02:48:05;;;;;;;10.30;3.90;;;5.20;99.90;;;;;;4893643;29;20411;-85
2022/11/26 02:50:52;;;;;;;10.02;3.90;;;5.10;99.90;;;;;;4883529;29;20450;-85
2022/11/26 02:53:20;;;;;;;8.10;3.45;;;5.10;99.90;;;;;;4866448;29;20053;-85
2022/11/26 02:55:51;;;;;;;11.77;3.47;;;5.10;99.90;;;;;;4888524;29;20048;-85
2022/11/26 02:58:17;;;;;;;8.27;3.60;;;5.10;99.90;;;;;;4887924;29;20080;-84
2022/11/26 03:00:45;;;;;;;11.90;3.80;;;5.10;99.90;;;;;;4889350;29;20059;-86
2022/11/26 03:03:22;;;;;;;7.22;3.22;;;5.10;99.90;;;;;;4882559;29;20056;-85
2022/11/26 03:05:53;;;;;;;8.88;3.85;;;5.10;99.90;;;;;;4879071;29;20041;-85
2022/11/26 03:08:18;;;;;;;10.30;3.38;;;5.10;99.90;;;;;;4889734;29;20049;-86
2022/11/26 03:10:44;;;;;;;11.32;3.78;;;5.00;99.90;;;;;;4879446;29;20041;-85
2022/11/26 03:13:10;;;;;;;14.13;4.30;;;5.00;99.90;;;;;;4878293;29;20128;-85
2022/11/26 03:15:35;;;;;;;11.82;3.88;;;5.00;99.90;;;;;;4878843;29;20041;-84
2022/11/26 03:18:01;;;;;;;12.45;4.25;;;5.00;99.90;;;;;;4879739;29;20033;-85
2022/11/26 03:20:26;;;;;;;14.98;4.38;;;5.00;99.90;;;;;;4879451;29;20048;-85
2022/11/26 03:22:52;;;;;;;11.63;3.90;;;5.00;99.90;;;;;;4878457;29;20053;-85
2022/11/26 03:25:18;;;;;;;8.90;3.70;;;4.90;99.90;;;;;;4877006;29;20136;-85
2022/11/26 03:27:43;;;;;;;10.07;4.05;;;5.00;99.90;;;;;;4897571;29;20043;-85
2022/11/26 03:30:10;;;;;;;18.15;5.13;;;5.00;99.90;;;;;;4895318;29;20048;-85
2022/11/26 03:32:36;;;;;;;17.63;4.90;;;5.00;99.90;;;;;;4882654;29;20045;-85
2022/11/26 03:35:02;;;;;;;11.15;4.55;;;4.90;99.90;;;;;;4892462;29;20049;-85
2022/11/26 03:37:28;;;;;;;12.13;4.47;;;5.00;99.90;;;;;;4890459;29;20063;-85
2022/11/26 03:39:53;;;;;;;9.43;3.95;;;4.90;99.90;;;;;;4881042;29;20494;-84
2022/11/26 03:42:19;;;;;;;11.10;4.20;;;4.90;99.90;;;;;;4880787;29;20053;-85
2022/11/26 03:44:44;;;;;;;12.90;4.35;;;4.90;99.90;;;;;;4880053;29;20378;-85
2022/11/26 03:47:10;;;;;;;12.15;4.40;;;4.90;99.90;;;;;;4884367;29;20112;-85
2022/11/26 03:49:35;;;;;;;12.10;4.25;;;4.90;99.90;;;;;;4894283;29;20048;-85
2022/11/26 03:52:01;;;;;;;11.55;4.07;;;4.90;99.90;;;;;;4885730;29;20095;-85
2022/11/26 03:54:27;;;;;;;10.40;4.10;;;4.90;99.90;;;;;;4881761;29;20541;-85
2022/11/26 03:56:52;;;;;;;9.82;3.83;;;4.90;99.90;;;;;;4885113;29;20041;-85
2022/11/26 03:59:18;;;;;;;9.45;4.05;;;4.90;99.90;;;;;;4897099;29;20053;-85
2022/11/26 04:01:43;;;;;;;11.35;4.00;;;4.90;99.90;;;;;;4886075;29;20041;-85
2022/11/26 04:04:09;;;;;;;11.43;4.28;;;4.90;99.90;;;;;;4882942;29;20405;-85
2022/11/26 04:06:35;;;;;;;13.80;4.13;;;4.80;99.90;;;;;;4898310;29;20048;-85
2022/11/26 04:09:04;;;;;;;10.32;3.72;;;4.80;99.90;;;;;;4891229;29;20120;-85
2022/11/26 04:11:29;;;;;;;10.75;4.30;;;4.80;99.90;;;;;;4898046;29;20045;-85
2022/11/26 04:13:55;;;;;;;11.07;4.00;;;4.80;99.90;;;;;;4881668;29;20041;-86
2022/11/26 04:16:20;;;;;;;10.85;3.88;;;4.80;99.90;;;;;;4880864;29;20128;-85
2022/11/26 04:18:46;;;;;;;10.25;4.00;;;4.80;99.90;;;;;;4893960;29;20040;-85
2022/11/26 04:21:12;;;;;;;8.90;3.90;;;4.80;99.90;;;;;;4898431;29;20127;-85
2022/11/26 04:23:38;;;;;;;9.93;3.92;;;4.70;99.90;;;;;;4888026;29;20140;-84
2022/11/26 04:26:04;;;;;;;8.77;3.95;;;4.80;99.90;;;;;;4898259;29;20047;-85
2022/11/26 04:28:30;;;;;;;11.40;3.95;;;4.70;99.90;;;;;;4888909;29;20053;-84
2022/11/26 04:30:55;;;;;;;9.23;3.90;;;4.70;99.90;;;;;;4880254;29;20053;-84
2022/11/26 04:33:21;;;;;;;9.25;4.43;;;4.70;99.90;;;;;;4887170;29;20041;-85
2022/11/26 04:35:46;;;;;;;10.18;4.35;;;4.70;99.90;;;;;;4899079;29;20238;-85
2022/11/26 04:38:12;;;;;;;11.15;4.13;;;4.70;99.90;;;;;;4884393;29;20092;-84
2022/11/26 04:40:38;;;;;;;10.43;4.40;;;4.70;99.90;;;;;;4890692;29;20053;-84
2022/11/26 04:43:03;;;;;;;9.13;4.18;;;4.70;99.90;;;;;;4888560;29;20041;-84
2022/11/26 04:45:29;;;;;;;8.38;3.70;;;4.60;99.90;;;;;;4878787;29;20501;-84
2022/11/26 04:47:54;;;;;;;10.35;3.92;;;4.60;99.90;;;;;;4879543;29;20180;-84
2022/11/26 04:50:20;;;;;;;9.48;3.97;;;4.60;99.90;;;;;;4895335;29;20049;-84
2022/11/26 04:52:47;;;;;;;8.25;3.90;;;4.60;99.90;;;;;;4879911;29;20045;-85
2022/11/26 04:55:13;;;;;;;12.40;4.07;;;4.60;99.90;;;;;;4894599;29;20052;-84
2022/11/26 04:57:39;;;;;;;8.13;3.95;;;4.60;99.90;;;;;;4861465;29;20046;-84
2022/11/26 05:00:06;;;;;;;11.57;4.18;;;4.60;99.90;;;;;;4876645;29;20048;-84
2022/11/26 05:02:31;;;;;;;9.43;4.00;;;4.60;99.90;;;;;;4861095;29;20053;-85
2022/11/26 05:04:57;;;;;;;10.02;4.07;;;4.60;99.90;;;;;;4864197;29;20406;-85
2022/11/26 05:07:22;;;;;;;9.43;4.03;;;4.60;99.90;;;;;;4880326;29;20049;-84
2022/11/26 05:09:48;;;;;;;9.63;4.18;;;4.60;99.90;;;;;;4879367;29;20509;-84
2022/11/26 05:12:14;;;;;;;11.75;4.18;;;4.60;99.90;;;;;;4893374;29;20079;-84
2022/11/26 05:14:39;;;;;;;9.65;4.07;;;4.60;99.90;;;;;;4884898;29;20056;-85
2022/11/26 05:17:05;;;;;;;12.80;4.20;;;4.50;99.90;;;;;;4880263;29;20041;-85
2022/11/26 05:19:30;;;;;;;11.25;3.85;;;4.50;99.90;;;;;;4880439;29;20097;-85
2022/11/26 05:21:56;;;;;;;12.65;4.43;;;4.50;99.90;;;;;;4888613;29;20056;-85
2022/11/26 05:24:22;;;;;;;9.82;4.22;;;4.50;99.90;;;;;;4898845;29;20088;-84
2022/11/26 05:26:48;;;;;;;11.93;4.30;;;4.50;99.90;;;;;;4896602;29;20052;-85
2022/11/26 05:29:13;;;;;;;10.27;4.18;;;4.50;99.90;;;;;;4884120;29;20047;-85
2022/11/26 05:31:39;;;;;;;11.35;4.43;;;4.50;99.90;;;;;;4879246;29;20041;-84
2022/11/26 05:34:04;;;;;;;11.55;4.00;;;4.50;99.90;;;;;;4880420;29;20041;-84
2022/11/26 05:36:30;;;;;;;8.55;3.97;;;4.50;99.90;;;;;;4877540;29;20044;-84
2022/11/26 05:38:55;;;;;;;11.07;3.97;;;4.50;99.90;;;;;;4878832;29;20576;-85
2022/11/26 05:41:21;;;;;;;9.75;4.40;;;4.50;99.90;;;;;;4878903;29;20113;-85
2022/11/26 05:43:47;;;;;;;10.93;4.38;;;4.50;99.90;;;;;;4878933;29;20052;-84
2022/11/26 05:46:17;;;;;;;9.70;4.20;;;4.50;99.90;;;;;;4878557;29;20189;-84
2022/11/26 05:48:43;;;;;;;9.48;3.75;;;4.50;99.90;;;;;;4896286;29;20049;-84
2022/11/26 05:51:09;;;;;;;10.15;4.03;;;4.50;99.90;;;;;;4879317;29;20051;-84
2022/11/26 05:53:34;;;;;;;11.55;4.25;;;4.50;99.90;;;;;;4881184;29;20049;-85
2022/11/26 05:56:00;;;;;;;11.90;4.22;;;4.50;99.90;;;;;;4878511;29;20055;-85
2022/11/26 05:58:25;;;;;;;12.70;4.25;;;4.50;99.90;;;;;;4878889;29;20033;-84
2022/11/26 06:00:51;;;;;;;9.85;4.10;;;4.50;99.90;;;;;;4879612;29;20132;-84
2022/11/26 06:03:17;;;;;;;10.80;3.90;;;4.50;99.90;;;;;;4888509;29;20037;-84
2022/11/26 06:05:43;;;;;;;10.57;4.32;;;4.40;99.90;;;;;;4898186;29;20533;-84
2022/11/26 06:08:09;;;;;;;13.45;4.22;;;4.50;99.90;;;;;;4892087;29;20047;-84
2022/11/26 06:10:34;;;;;;;11.00;4.47;;;4.50;99.90;;;;;;4878054;29;20071;-85
2022/11/26 06:13:00;;;;;;;11.57;4.03;;;4.50;99.90;;;;;;4888929;29;20489;-85
2022/11/26 06:15:25;;;;;;;8.77;3.92;;;4.50;99.90;;;;;;4879829;29;20128;-85
2022/11/26 06:17:51;;;;;;;11.07;3.92;;;4.40;99.90;;;;;;4883567;29;20378;-85
2022/11/26 06:20:16;;;;;;;9.73;4.53;;;4.50;99.90;;;;;;4879462;29;20048;-84
2022/11/26 06:22:43;;;;;;;8.82;4.30;;;4.50;99.90;;;;;;4879114;29;20110;-84
2022/11/26 06:25:12;;;;;;;12.15;4.18;;;4.50;99.90;;;;;;4896105;29;20076;-84
2022/11/26 06:27:38;;;;;;;12.27;4.40;;;4.50;99.90;;;;;;4879915;29;20117;-84
2022/11/26 06:30:06;;;;;;;8.82;4.00;;;4.40;99.90;;;;;;4886761;29;20106;-84
2022/11/26 06:32:34;;;;;;;13.23;5.35;;;4.50;99.90;;;;;;4877834;29;20053;-86
2022/11/26 06:35:00;;;;;;;16.48;5.32;;;4.40;99.90;;;;;;4882254;29;20513;-85
2022/11/26 06:37:25;;;;;;;11.70;4.60;;;4.50;99.90;;;;;;4876867;29;20049;-86
2022/11/26 06:39:51;;;;;;;11.32;4.28;;;4.50;99.90;;;;;;4876381;29;20053;-86
2022/11/26 06:42:21;;;;;;;13.60;4.93;;;4.50;99.90;;;;;;4892816;29;20059;-86
2022/11/26 06:44:46;;;;;;;11.82;4.40;;;4.50;99.90;;;;;;4876998;29;20507;-86
2022/11/26 06:47:15;;;;;;;9.95;4.15;;;4.50;99.90;;;;;;4877666;29;20124;-87
2022/11/26 06:58:05;;;;;;;10.07;3.90;;;4.40;99.90;;;;;;5506341;23;20044;-86
2022/11/26 07:00:30;;;;;;;10.80;4.53;;;4.40;99.90;;;;;;4914790;29;20048;-84
2022/11/26 07:02:56;;;;;;;10.93;4.53;;;4.40;99.90;;;;;;4914622;29;20047;-84
2022/11/26 07:05:21;;;;;;;8.73;3.85;;;4.40;99.90;;;;;;4916016;29;20036;-85
2022/11/26 07:07:47;;;;;;;19.38;5.38;;;4.40;99.90;;;;;;4914144;29;20048;-87
2022/11/26 07:10:13;;;;;;;12.55;4.53;;;4.40;99.90;;;;;;4917355;29;20040;-85
2022/11/26 07:12:38;;;;;;;18.67;6.57;;;4.40;99.90;;;;;;4920486;29;20054;-84
2022/11/26 07:15:05;;;;;;;15.38;5.60;;;4.40;99.90;;;;;;4918063;29;20040;-86
2022/11/26 07:17:30;;;;;;;11.02;4.80;;;4.40;99.90;;;;;;4919755;29;20040;-86
2022/11/26 07:19:56;;;;;;;10.82;4.30;;;4.40;99.90;;;;;;4917479;29;20087;-86
2022/11/26 07:22:21;;;;;;;9.68;4.10;;;4.40;99.90;;;;;;4917454;29;20044;-84
2022/11/26 07:24:47;;;;;;;11.30;4.55;;;4.40;99.90;;;;;;4919584;29;20032;-85
2022/11/26 07:27:13;;;;;;;12.55;5.25;;;4.40;99.90;;;;;;4920111;29;20044;-86
2022/11/26 07:29:38;;;;;;;11.57;4.68;;;4.30;99.90;;;;;;4917977;29;20040;-86
2022/11/26 07:32:04;;;;;;;10.32;4.38;;;4.40;99.90;;;;;;4951062;23;20156;-86
2022/11/26 07:34:30;;;;;;;8.38;4.00;;;4.40;99.90;;;;;;4918833;29;20112;-87
2022/11/26 07:37:00;;;;;;;10.57;4.32;;;4.40;99.90;;;;;;4917750;29;20080;-87
2022/11/26 07:39:28;;;;;;;13.57;5.30;;;4.40;99.90;;;;;;4918674;29;20044;-88
2022/11/26 07:41:57;;;;;;;9.65;4.05;;;4.40;99.90;;;;;;4918168;29;20404;-87
2022/11/26 07:44:29;;;;;;;10.98;4.40;;;4.40;99.90;;;;;;4918360;29;20067;-87
2022/11/26 07:47:02;;;;;;;8.35;4.05;;;4.40;99.90;;;;;;4918171;29;20056;-87
2022/11/26 07:49:30;;;;;;;11.20;4.63;;;4.30;99.90;;;;;;4918910;29;20396;-87
2022/11/26 07:52:03;;;;;;;12.63;4.88;;;4.40;99.90;;;;;;4916964;29;20193;-87
2022/11/26 07:54:34;;;;;;;13.63;5.15;;;4.40;99.90;;;;;;4916653;29;20103;-85
2022/11/26 07:57:03;;;;;;;13.13;4.90;;;4.40;99.90;;;;;;4913792;29;20135;-86
2022/11/26 07:59:37;;;;;;;10.05;4.32;;;4.40;99.90;;;;;;4919056;29;20044;-86
2022/11/26 08:02:16;;;;;;;9.38;4.30;;;4.40;99.90;;;;;;4918105;29;20056;-86
2022/11/26 08:04:42;;;;;;;10.20;4.63;;;4.40;99.90;;;;;;4916956;29;20047;-85
2022/11/26 08:07:10;;;;;;;12.07;4.88;;;4.40;99.90;;;;;;4917629;29;20044;-86
2022/11/26 08:09:42;;;;;;;8.50;4.32;;;4.40;99.90;;;;;;4917961;29;20119;-86
2022/11/26 08:12:11;;;;;;;13.57;5.70;;;4.40;99.90;;;;;;4916422;29;20059;-85
2022/11/26 08:14:39;;;;;;;23.88;7.40;;;4.40;99.90;;;;;;4917170;29;20400;-86
2022/11/26 08:17:17;;;;;;;14.65;4.57;;;4.40;99.90;;;;;;4917800;29;20068;-86
2022/11/26 08:19:55;;;;;;;13.20;5.82;;;4.50;99.90;;;;;;4915221;29;20059;-87
2022/11/26 08:22:24;;;;;;;14.60;4.65;;;4.40;99.90;;;;;;4915387;29;20044;-85
2022/11/26 08:24:52;;;;;;;11.10;4.68;;;4.50;99.90;;;;;;4927629;29;20051;-87
2022/11/26 08:27:24;;;;;;;11.68;5.40;;;4.50;99.90;;;;;;4916053;29;20127;-87
2022/11/26 08:30:10;;;;;;;18.90;5.68;;;4.60;99.90;;;;;;4917643;29;20097;-86
2022/11/26 08:32:35;;;;;;;23.02;8.02;;;4.60;99.90;;;;;;4915707;29;20052;-87
2022/11/26 08:35:01;;;;;;;21.40;9.07;;;4.60;99.90;;;;;;4918001;29;20106;-87
2022/11/26 08:37:30;;;;;;;13.48;5.93;;;4.70;99.90;;;;;;4917524;29;20046;-87
2022/11/26 08:39:59;;;;;;;26.80;9.48;;;4.80;99.90;;;;;;4911099;29;20044;-86
2022/11/26 08:42:27;;;;;;;26.08;8.32;;;4.90;99.90;;;;;;4917176;29;20051;-87
2022/11/26 08:44:59;;;;;;;30.13;10.13;;;4.90;99.90;;;;;;4916217;29;20048;-86
2022/11/26 08:47:31;;;;;;;25.52;8.18;;;5.00;99.90;;;;;;4917228;29;20087;-86
2022/11/26 08:50:03;;;;;;;28.88;9.63;;;5.10;99.90;;;;;;4902282;29;20041;-87
2022/11/26 08:52:31;;;;;;;33.45;10.77;;;5.10;99.90;;;;;;4917072;29;20048;-85
2022/11/26 08:55:05;;;;;;;39.38;11.70;;;5.30;99.90;;;;;;4918357;29;20051;-86
2022/11/26 08:57:37;;;;;;;31.23;10.70;;;5.30;99.90;;;;;;4916207;29;20044;-86
2022/11/26 09:00:09;;;;;;;27.50;9.68;;;5.40;99.90;;;;;;4915529;29;20064;-86
2022/11/26 09:02:43;;;;;;;25.00;7.85;;;5.40;99.90;;;;;;4916837;29;20515;-86
2022/11/26 09:05:14;;;;;;;31.77;10.00;;;5.50;99.90;;;;;;4916788;29;20055;-87
2022/11/26 09:07:49;;;;;;;24.67;8.27;;;5.50;99.90;;;;;;4916644;29;20054;-88
2022/11/26 09:10:15;;;;;;;28.55;10.23;;;5.60;99.90;;;;;;4911872;29;20428;-87
2022/11/26 09:12:46;;;;;;;26.50;8.50;;;5.60;99.90;;;;;;4917090;29;20047;-87
2022/11/26 09:15:15;;;;;;;21.60;7.28;;;5.70;99.90;;;;;;4916565;29;20059;-87
2022/11/26 09:17:41;;;;;;;30.15;9.82;;;5.70;99.90;;;;;;4918658;29;20044;-87
2022/11/26 09:20:19;;;;;;;27.50;9.65;;;5.70;99.90;;;;;;4918192;29;20055;-86
2022/11/26 09:22:53;;;;;;;27.08;10.63;;;5.80;99.90;;;;;;4917151;29;20051;-86
2022/11/26 09:25:22;;;;;;;37.35;11.10;;;5.80;99.90;;;;;;4917121;29;20401;-86
2022/11/26 09:27:47;;;;;;;38.00;12.43;;;5.80;99.90;;;;;;4916121;29;20505;-87
2022/11/26 09:30:15;;;;;;;31.13;10.75;;;5.90;99.90;;;;;;4917824;29;20055;-87
2022/11/26 09:32:40;;;;;;;30.90;10.30;;;5.90;99.90;;;;;;4916556;29;20056;-87
2022/11/26 09:35:07;;;;;;;27.17;10.93;;;5.90;99.90;;;;;;4916054;29;20139;-87
2022/11/26 09:37:33;;;;;;;33.58;12.07;;;6.00;99.90;;;;;;4917923;29;20070;-86
2022/11/26 09:39:59;;;;;;;42.35;11.88;;;6.00;99.90;;;;;;4917791;29;20100;-86
2022/11/26 09:42:45;;;;;;;30.65;11.18;;;6.00;99.90;;;;;;4915808;29;20437;-86
2022/11/26 09:45:29;;;;;;;30.30;11.30;;;6.10;99.90;;;;;;4917455;29;20051;-86
2022/11/26 09:47:55;;;;;;;28.88;9.45;;;6.10;99.90;;;;;;4918020;29;20119;-86
2022/11/26 09:50:34;;;;;;;33.05;10.20;;;6.10;99.90;;;;;;4915715;29;20136;-86
2022/11/26 09:53:17;;;;;;;31.58;9.70;;;6.10;99.90;;;;;;4918329;29;20055;-86
2022/11/26 09:55:48;;;;;;;;;;;6.20;99.90;;;;;;4916582;29;20048;-86
2022/11/26 09:58:26;;;;;;;28.33;10.63;;;6.20;99.90;;;;;;4916048;29;20014;-86
2022/11/26 10:00:53;;;;;;;38.92;13.43;;;6.20;99.90;;;;;;4916415;29;20134;-86
2022/11/26 10:03:22;;;;;;;30.90;11.15;;;6.30;99.90;;;;;;4917002;29;20378;-86
2022/11/26 10:05:57;;;;;;;30.00;11.40;;;6.30;99.90;;;;;;4916493;29;20048;-87
2022/11/26 10:08:36;;;;;;;28.73;10.98;;;6.30;99.90;;;;;;4916201;29;20052;-86
2022/11/26 10:11:22;;;;;;;35.00;12.02;;;6.40;99.90;;;;;;4915445;29;20052;-87
2022/11/26 10:13:56;;;;;;;31.58;11.02;;;6.40;99.90;;;;;;4917549;29;20044;-86
2022/11/26 10:16:39;;;;;;;42.08;13.85;;;6.40;99.90;;;;;;4916865;29;20091;-86
2022/11/26 10:19:24;;;;;;;34.67;13.73;;;6.50;99.90;;;;;;4916248;29;20044;-86
2022/11/26 10:21:57;;;;;;;29.60;11.48;;;6.50;99.90;;;;;;4916157;29;20412;-86
2022/11/26 10:24:30;;;;;;;40.17;14.87;;;6.60;99.90;;;;;;4915341;29;20143;-87
2022/11/26 10:27:00;;;;;;;33.22;11.48;;;6.60;99.90;;;;;;4915968;29;20903;-87
2022/11/26 10:29:40;;;;;;;39.22;15.20;;;6.70;99.90;;;;;;4917197;29;20040;-87
2022/11/26 10:32:20;;;;;;;42.45;13.20;;;6.70;99.90;;;;;;4914833;29;20060;-86
2022/11/26 10:34:53;;;;;;;29.00;11.48;;;6.80;99.90;;;;;;4915897;29;20052;-87
2022/11/26 10:37:20;;;;;;;37.38;13.40;;;6.80;99.90;;;;;;4915872;29;20510;-87
2022/11/26 10:39:46;;;;;;;44.22;14.82;;;6.90;99.90;;;;;;4915382;29;20040;-86
2022/11/26 10:42:20;;;;;;;41.78;14.40;;;6.90;99.90;;;;;;4915669;29;20155;-87
2022/11/26 10:44:48;;;;;;;36.20;13.30;;;6.90;99.90;;;;;;4915979;29;20040;-87
2022/11/26 10:47:29;;;;;;;30.77;12.23;;;7.00;99.90;;;;;;4915542;29;20079;-87
2022/11/26 10:50:13;;;;;;;45.17;14.55;;;7.00;99.90;;;;;;4916128;29;20062;-87
2022/11/26 10:52:39;;;;;;;33.13;11.52;;;7.00;99.90;;;;;;4916064;29;20508;-87
2022/11/26 10:55:25;;;;;;;34.28;11.82;;;7.10;99.90;;;;;;4915683;29;20047;-87
2022/11/26 10:57:58;;;;;;;34.88;12.00;;;7.10;99.90;;;;;;4915990;29;20184;-86
2022/11/26 11:00:52;;;;;;;31.95;13.55;;;7.10;99.90;;;;;;4915834;29;20393;-87
2022/11/26 11:03:22;;;;;;;35.75;13.02;;;7.20;99.90;;;;;;4915679;29;20111;-87
2022/11/26 11:05:48;;;;;;;32.50;13.77;;;7.20;99.90;;;;;;4915421;29;20048;-87
2022/11/26 11:08:34;;;;;;;31.25;12.05;;;7.20;99.90;;;;;;4915593;29;20055;-88
2022/11/26 11:11:01;;;;;;;41.10;14.55;;;7.30;99.90;;;;;;4924273;29;20070;-87
2022/11/26 11:13:38;;;;;;;28.42;11.55;;;7.30;99.90;;;;;;4928763;29;20127;-87
2022/11/26 11:16:04;;;;;;;35.95;13.77;;;7.30;99.90;;;;;;4920680;29;20087;-87
2022/11/26 11:18:34;;;;;;;24.85;11.48;;;7.40;99.90;;;;;;4919176;29;20048;-90
2022/11/26 11:21:04;;;;;;;39.05;14.02;;;7.40;99.90;;;;;;4915982;29;20108;-91
2022/11/26 11:23:33;;;;;;;40.22;13.63;;;7.40;99.90;;;;;;4914977;29;20050;-87
2022/11/26 11:26:05;;;;;;;41.65;14.77;;;7.40;99.90;;;;;;4915455;29;20087;-88
2022/11/26 11:28:33;;;;;;;28.30;11.32;;;7.40;99.90;;;;;;4914437;29;20131;-88
2022/11/26 11:31:09;;;;;;;31.42;12.45;;;7.50;99.90;;;;;;4915186;29;20058;-89
2022/11/26 11:33:35;;;;;;;38.80;14.65;;;7.50;99.90;;;;;;4914898;29;20056;-88
2022/11/26 11:36:08;;;;;;;42.30;15.02;;;7.50;99.90;;;;;;4916310;29;20059;-89
2022/11/26 11:38:55;;;;;;;34.83;14.15;;;7.60;99.90;;;;;;4916675;29;20032;-89
2022/11/26 11:41:23;;;;;;;38.33;13.98;;;7.60;99.90;;;;;;4914312;29;20044;-90
2022/11/26 11:43:49;;;;;;;28.75;13.55;;;7.60;99.90;;;;;;4915693;29;20087;-89
2022/11/26 11:46:53;;;;;;;40.47;13.57;;;7.70;99.90;;;;;;4915635;29;20086;-88
2022/11/26 11:49:36;;;;;;;43.75;16.52;;;7.70;99.90;;;;;;4913095;29;20060;-88
2022/11/26 11:52:09;;;;;;;;;;;7.70;99.90;;;;;;4917425;29;20599;-88
2022/11/26 11:54:53;;;;;;;39.60;15.50;;;7.70;99.90;;;;;;4916118;29;19930;-87
2022/11/26 11:57:50;;;;;;;38.17;15.30;;;7.70;99.90;;;;;;4915637;29;20520;-88
2022/11/26 12:00:19;;;;;;;41.92;15.52;;;7.80;99.90;;;;;;4919269;29;20095;-88
2022/11/26 12:03:32;;;;;;;39.97;15.32;;;7.80;99.90;;;;;;4917621;29;20135;-88
2022/11/26 12:06:21;;;;;;;49.40;17.10;;;7.80;99.90;;;;;;4915668;29;20056;-88
2022/11/26 12:09:19;;;;;;;38.78;15.35;;;7.80;99.90;;;;;;4918076;29;20051;-88
2022/11/26 12:11:50;;;;;;;38.38;16.85;;;7.80;99.90;;;;;;4917818;29;20515;-88
2022/11/26 12:14:40;;;;;;;24.92;12.55;;;7.90;99.90;;;;;;4917605;29;20059;-88
2022/11/26 12:17:24;;;;;;;37.05;15.70;;;7.90;99.90;;;;;;4918690;29;20063;-88
2022/11/26 12:19:55;;;;;;;33.33;14.63;;;7.90;99.90;;;;;;4919978;29;20044;-88
2022/11/26 12:22:26;;;;;;;36.83;15.07;;;8.00;99.90;;;;;;4918241;29;20548;-88
2022/11/26 12:24:57;;;;;;;43.65;16.42;;;8.00;99.90;;;;;;4918454;29;20540;-88
2022/11/26 12:27:26;;;;;;;40.42;15.35;;;8.00;99.90;;;;;;4917634;29;20052;-88
2022/11/26 12:30:07;;;;;;;38.45;14.48;;;8.10;99.90;;;;;;4918097;29;20394;-87
2022/11/26 12:32:51;;;;;;;37.30;14.77;;;8.10;99.90;;;;;;4918430;29;20067;-88
2022/11/26 12:35:26;;;;;;;35.97;16.23;;;8.10;99.90;;;;;;4917645;29;20076;-88
2022/11/26 12:37:58;;;;;;;39.22;16.38;;;8.10;99.90;;;;;;4917837;29;20126;-89
2022/11/26 12:40:40;;;;;;;40.55;16.80;;;8.10;99.90;;;;;;4918979;29;20044;-87
2022/11/26 12:43:18;;;;;;;46.22;17.38;;;8.10;99.90;;;;;;4917749;29;20066;-88
2022/11/26 12:46:02;;;;;;;47.40;16.83;;;8.20;99.90;;;;;;4916840;29;20044;-87
2022/11/26 12:48:54;;;;;;;27.83;12.65;;;8.20;99.90;;;;;;4913196;29;20040;-88
2022/11/26 12:51:35;;;;;;;35.85;15.55;;;8.20;99.90;;;;;;4918215;29;20081;-87
2022/11/26 12:54:38;;;;;;;33.95;14.73;;;8.20;99.90;;;;;;4917695;29;20569;-87
2022/11/26 12:57:16;;;;;;;33.88;14.45;;;8.20;99.90;;;;;;4918848;29;20496;-87
2022/11/26 12:59:47;;;;;;;43.17;17.23;;;8.30;99.90;;;;;;4917870;29;20052;-86
2022/11/26 13:02:22;;;;;;;35.25;15.95;;;8.30;99.90;;;;;;4917300;29;20084;-86
2022/11/26 13:04:49;;;;;;;30.75;12.38;;;8.30;99.90;;;;;;4917856;29;20048;-86
2022/11/26 13:07:36;;;;;;;35.40;16.15;;;8.30;99.90;;;;;;4916528;29;20121;-86
2022/11/26 13:10:22;;;;;;;33.38;15.18;;;8.30;99.90;;;;;;4918788;29;20048;-86
2022/11/26 13:13:07;;;;;;;41.50;14.38;;;8.30;99.90;;;;;;4915894;29;20040;-86